Time;durP1;ratioP1;P1;durP2;ratioP2;P2;SDS_P1;SDS_P2;PMS_P1;PMS_P2;Temp;Humidity;BMP_temperature;BMP_pressure;BME280_temperature;BME280_humidity;BME280_pressure;Samples;Min_cycle;Max_cycle;Signal;HPM_P1;HPM_P2
2021/10/08 00:01:28;;;;;;;64.00;57.13;;;;;;;15.79;100.00;102996.27;1941086;74;31548;-73
2021/10/08 00:06:53;;;;;;;61.13;54.77;;;;;;;15.80;100.00;102984.50;1941152;74;33103;-73
2021/10/08 00:12:17;;;;;;;60.67;54.10;;;;;;;15.78;100.00;102979.19;1940989;74;33019;-73
2021/10/08 00:17:42;;;;;;;58.27;52.27;;;;;;;15.79;100.00;102986.46;1941229;74;32999;-73
2021/10/08 00:23:07;;;;;;;56.40;50.33;;;;;;;15.80;100.00;102987.31;1941104;74;33532;-73
2021/10/08 00:28:32;;;;;;;58.07;51.87;;;;;;;15.76;100.00;102984.75;1941017;74;32965;-73
2021/10/08 00:33:56;;;;;;;62.17;52.00;;;;;;;15.81;100.00;102986.20;1941144;74;33526;-73
2021/10/08 00:39:20;;;;;;;56.50;50.20;;;;;;;15.84;100.00;103006.13;1940951;74;33453;-73
2021/10/08 00:44:45;;;;;;;62.03;54.53;;;;;;;15.83;100.00;103000.81;1941234;74;31033;-74
2021/10/08 00:50:11;;;;;;;59.97;51.90;;;;;;;15.69;100.00;103004.61;1940957;74;33030;-73
2021/10/08 00:55:37;;;;;;;67.50;56.07;;;;;;;15.79;100.00;103003.27;1941126;74;31010;-73
2021/10/08 01:01:02;;;;;;;69.57;58.03;;;;;;;15.76;100.00;103015.58;1941180;74;33067;-73
2021/10/08 01:06:26;;;;;;;66.60;56.60;;;;;;;15.76;100.00;103016.43;1941038;74;31124;-73
2021/10/08 01:11:52;;;;;;;72.07;56.50;;;;;;;15.73;100.00;103023.13;1941181;74;31102;-73
2021/10/08 01:17:22;;;;;;;75.80;59.00;;;;;;;15.78;100.00;103018.98;1941134;74;33078;-76
2021/10/08 01:22:46;;;;;;;64.87;55.23;;;;;;;15.72;100.00;103020.88;1940958;74;33445;-73
2021/10/08 01:28:15;;;;;;;67.90;57.53;;;;;;;15.68;100.00;103023.93;1941066;74;33046;-73
2021/10/08 01:33:39;;;;;;;72.90;59.07;;;;;;;15.71;100.00;103023.94;1941030;74;33019;-75
2021/10/08 01:39:04;;;;;;;66.03;55.40;;;;;;;15.70;100.00;103023.09;1941125;74;33613;-73
2021/10/08 01:44:31;;;;;;;68.57;56.97;;;;;;;15.63;100.00;103026.68;2022860;71;32885;-74
2021/10/08 01:49:55;;;;;;;61.57;54.37;;;;;;;15.67;100.00;103036.80;1940890;74;32961;-73
2021/10/08 01:55:20;;;;;;;61.90;55.13;;;;;;;15.60;100.00;103040.38;1940935;74;31095;-72
2021/10/08 02:00:45;;;;;;;64.77;55.27;;;;;;;15.58;100.00;103044.84;1940999;74;33038;-72
2021/10/08 02:06:09;;;;;;;60.90;54.27;;;;;;;15.58;100.00;103042.59;1941176;74;33438;-74
2021/10/08 02:11:34;;;;;;;57.57;51.60;;;;;;;15.51;100.00;103040.58;1941240;74;32971;-73
2021/10/08 02:16:59;;;;;;;58.00;52.27;;;;;;;15.53;100.00;103038.36;1941263;74;33412;-73
2021/10/08 02:22:23;;;;;;;57.43;51.40;;;;;;;15.44;100.00;103042.17;1941147;74;31625;-73
2021/10/08 02:27:48;;;;;;;60.37;54.07;;;;;;;15.51;100.00;103035.81;1941031;74;31030;-72
2021/10/08 02:33:12;;;;;;;58.33;51.67;;;;;;;15.48;100.00;103035.77;1941276;74;32970;-72
2021/10/08 02:38:39;;;;;;;57.43;51.30;;;;;;;15.46;100.00;103032.38;1941112;74;31564;-74
2021/10/08 02:44:04;;;;;;;59.13;53.07;;;;;;;15.39;100.00;103041.56;1940940;74;31063;-73
2021/10/08 02:49:29;;;;;;;59.67;53.20;;;;;;;15.41;100.00;103032.88;1940946;74;31028;-73
2021/10/08 02:55:13;;;;;;;58.43;52.10;;;;;;;15.47;100.00;103038.83;2009725;71;32919;-72
2021/10/08 03:00:47;;;;;;;61.87;53.33;;;;;;;15.42;100.00;103039.63;1941006;74;31032;-73
2021/10/08 03:06:11;;;;;;;61.23;54.13;;;;;;;15.41;100.00;103032.32;1941099;74;33497;-73
2021/10/08 03:11:36;;;;;;;57.27;50.83;;;;;;;15.42;100.00;103038.22;1941083;74;33622;-73
2021/10/08 03:17:01;;;;;;;59.30;49.83;;;;;;;15.40;100.00;103034.83;1940921;74;33034;-73
2021/10/08 03:22:26;;;;;;;62.90;51.93;;;;;;;15.52;100.00;103033.86;1941069;74;32990;-73
2021/10/08 03:27:50;;;;;;;58.93;52.13;;;;;;;15.51;100.00;103040.58;1940917;74;32959;-73
2021/10/08 03:33:15;;;;;;;54.93;49.17;;;;;;;15.42;100.00;103038.77;1940937;74;33101;-73
2021/10/08 03:38:39;;;;;;;55.40;49.53;;;;;;;15.39;100.00;103046.31;1941086;74;33040;-73
2021/10/08 03:44:11;;;;;;;54.80;48.93;;;;;;;15.42;100.00;103043.82;1941152;74;32968;-73
2021/10/08 03:49:35;;;;;;;54.70;48.53;;;;;;;15.35;100.00;103042.35;1941200;74;33430;-73
2021/10/08 03:55:00;;;;;;;58.93;47.60;;;;;;;15.37;100.00;103042.91;1941133;74;33120;-72
2021/10/08 04:00:25;;;;;;;54.70;48.33;;;;;;;15.33;100.00;103045.41;1933291;74;39586;-73
2021/10/08 04:05:50;;;;;;;53.00;47.40;;;;;;;15.34;100.00;103045.70;1940833;74;33024;-73
2021/10/08 04:11:14;;;;;;;53.90;48.07;;;;;;;15.35;100.00;103042.35;1941050;74;33617;-73
2021/10/08 04:16:39;;;;;;;51.13;45.57;;;;;;;15.34;100.00;103035.05;1941162;74;33526;-74
2021/10/08 04:22:04;;;;;;;50.27;45.03;;;;;;;15.31;100.00;103036.44;1941143;74;33501;-73
2021/10/08 04:27:28;;;;;;;47.47;42.27;;;;;;;15.41;100.00;103033.72;1941172;74;33585;-73
2021/10/08 04:32:52;;;;;;;49.40;44.00;;;;;;;15.32;100.00;103040.05;1941166;74;33475;-73
2021/10/08 04:38:18;;;;;;;49.17;43.97;;;;;;;15.33;100.00;103038.40;1941092;74;33482;-73
2021/10/08 04:43:43;;;;;;;51.30;45.83;;;;;;;15.33;100.00;103045.41;1940904;74;33115;-74
2021/10/08 04:49:07;;;;;;;50.10;44.87;;;;;;;15.35;100.00;103042.35;1940888;74;33079;-74
2021/10/08 04:54:31;;;;;;;48.37;43.63;;;;;;;15.28;100.00;103041.70;1940937;74;32988;-73
2021/10/08 04:59:56;;;;;;;49.47;44.37;;;;;;;15.37;100.00;103038.72;1941175;74;32976;-73
2021/10/08 05:05:20;;;;;;;51.27;46.13;;;;;;;15.20;100.00;103038.81;1941065;74;33086;-73
2021/10/08 05:10:46;;;;;;;52.93;44.70;;;;;;;15.24;100.00;103042.78;1940939;74;32987;-73
2021/10/08 05:16:10;;;;;;;48.17;42.90;;;;;;;15.25;100.00;103046.43;1941180;74;33490;-72
2021/10/08 05:21:35;;;;;;;49.13;43.47;;;;;;;15.21;100.00;103051.72;1941038;74;31104;-73
2021/10/08 05:27:00;;;;;;;49.03;43.67;;;;;;;15.25;100.00;103058.48;1940989;74;33204;-72
2021/10/08 05:32:24;;;;;;;50.60;45.20;;;;;;;15.21;100.00;103057.31;1941259;74;33549;-72
2021/10/08 05:37:49;;;;;;;54.83;46.40;;;;;;;15.33;100.00;103057.16;1941127;74;31021;-72
2021/10/08 05:43:14;;;;;;;54.27;47.10;;;;;;;15.34;100.00;103058.86;1941013;74;32984;-73
2021/10/08 05:48:42;;;;;;;52.90;45.93;;;;;;;15.27;100.00;103059.08;1941130;74;33546;-72
2021/10/08 05:54:07;;;;;;;53.07;47.13;;;;;;;15.28;100.00;103068.30;1941131;74;31595;-73
2021/10/08 05:59:31;;;;;;;52.73;46.80;;;;;;;15.22;100.00;103058.16;1940982;74;31042;-73
2021/10/08 06:04:55;;;;;;;55.43;45.87;;;;;;;15.25;100.00;103068.83;1940902;74;32993;-73
2021/10/08 06:10:20;;;;;;;50.97;45.47;;;;;;;15.21;100.00;103062.06;1940977;74;31537;-73
2021/10/08 06:15:51;;;;;;;52.67;47.17;;;;;;;15.24;100.00;103070.78;1941133;74;33499;-73
2021/10/08 06:21:15;;;;;;;51.23;45.70;;;;;;;15.27;100.00;103073.63;1941166;74;31140;-73
2021/10/08 06:26:40;;;;;;;52.07;46.43;;;;;;;15.23;100.00;103073.86;1940915;74;33057;-73
2021/10/08 06:32:06;;;;;;;54.87;47.80;;;;;;;15.31;100.00;103082.64;1941009;74;31036;-72
2021/10/08 06:37:31;;;;;;;54.53;48.73;;;;;;;15.22;100.00;103084.77;1940965;74;33079;-72
2021/10/08 06:42:55;;;;;;;54.03;48.03;;;;;;;15.25;100.00;103090.69;1941091;74;33424;-73
2021/10/08 06:48:20;;;;;;;54.30;47.93;;;;;;;15.20;100.00;103093.97;1941126;74;33489;-73
2021/10/08 06:53:45;;;;;;;55.87;48.13;;;;;;;15.19;100.00;103098.72;1941201;74;33474;-73
2021/10/08 06:59:09;;;;;;;55.27;48.97;;;;;;;15.22;100.00;103107.17;1941046;74;33484;-72
2021/10/08 07:04:33;;;;;;;60.93;48.03;;;;;;;15.31;100.00;103113.45;1941045;74;33053;-72
2021/10/08 07:09:58;;;;;;;61.57;53.03;;;;;;;15.35;100.00;103110.97;1941123;74;33034;-72
2021/10/08 07:15:24;;;;;;;63.93;54.17;;;;;;;15.35;100.00;103119.38;1941092;74;33429;-72
2021/10/08 07:20:50;;;;;;;62.53;54.00;;;;;;;15.35;100.00;103124.42;1940910;74;32968;-72
2021/10/08 07:26:15;;;;;;;62.90;53.27;;;;;;;15.40;100.00;103118.84;1940906;74;33047;-72
2021/10/08 07:31:40;;;;;;;62.50;55.90;;;;;;;15.39;100.00;103134.54;1940967;74;32972;-72
2021/10/08 07:37:05;;;;;;;60.27;53.67;;;;;;;15.34;100.00;103137.27;1941135;74;33574;-72
2021/10/08 07:42:30;;;;;;;68.67;61.20;;;;;;;15.38;100.00;103130.03;1907596;75;33069;-74
2021/10/08 07:47:54;;;;;;;56.53;50.57;;;;;;;15.38;100.00;103131.44;1940941;74;33102;-73
2021/10/08 07:53:19;;;;;;;56.27;49.97;;;;;;;15.39;100.00;103127.53;1941102;74;32982;-73
2021/10/08 07:58:44;;;;;;;57.97;51.13;;;;;;;15.29;100.00;103140.86;1941004;74;32967;-73
2021/10/08 08:04:09;;;;;;;58.93;52.23;;;;;;;15.35;100.00;103141.77;1940939;74;33514;-74
2021/10/08 08:09:33;;;;;;;62.63;52.67;;;;;;;15.32;100.00;103140.88;1941032;74;33013;-73
2021/10/08 08:14:58;;;;;;;63.10;56.37;;;;;;;15.47;100.00;103155.08;1941155;74;33005;-73
2021/10/08 08:20:24;;;;;;;57.23;51.03;;;;;;;15.44;100.00;103153.66;1941139;74;33528;-73
2021/10/08 08:25:49;;;;;;;55.90;49.87;;;;;;;15.47;100.00;103158.73;1941178;74;33545;-73
2021/10/08 08:31:15;;;;;;;58.23;51.90;;;;;;;15.60;100.00;103167.31;1940923;74;32962;-73
2021/10/08 08:36:39;;;;;;;58.47;52.37;;;;;;;15.56;100.00;103165.30;1941054;74;32968;-74
2021/10/08 08:42:04;;;;;;;58.70;52.67;;;;;;;15.74;100.00;103170.55;1940876;74;33087;-73
2021/10/08 08:47:29;;;;;;;59.00;53.13;;;;;;;15.58;100.00;103172.31;1941006;74;33075;-74
2021/10/08 08:52:54;;;;;;;55.57;49.83;;;;;;;15.61;100.00;103176.02;1941070;74;33174;-74
2021/10/08 08:58:20;;;;;;;56.20;50.37;;;;;;;15.69;100.00;103174.70;1940978;74;33121;-74
2021/10/08 09:04:06;;;;;;;58.43;52.47;;;;;;;15.74;100.00;103185.97;1941070;74;32986;-74
2021/10/08 09:09:38;;;;;;;56.23;50.13;;;;;;;15.81;100.00;103182.39;1941047;74;33055;-74
2021/10/08 09:15:09;;;;;;;56.87;50.50;;;;;;;15.84;100.00;103184.11;1941357;74;32989;-73
2021/10/08 09:20:35;;;;;;;55.77;50.43;;;;;;;15.77;100.00;103179.27;1941065;74;32994;-74
2021/10/08 09:26:01;;;;;;;57.73;51.13;;;;;;;15.79;100.00;103181.24;1941204;74;33687;-74
2021/10/08 09:31:40;;;;;;;54.67;48.90;;;;;;;15.90;100.00;103180.26;1941075;74;32987;-74
2021/10/08 09:37:13;;;;;;;52.80;47.63;;;;;;;16.02;100.00;103175.03;1941152;74;33551;-74
2021/10/08 09:42:43;;;;;;;56.67;51.10;;;;;;;16.15;100.00;103176.00;1941211;74;33545;-74
2021/10/08 09:48:12;;;;;;;51.97;46.67;;;;;;;16.26;100.00;103181.98;1941017;74;31014;-75
2021/10/08 09:53:58;;;;;;;50.43;45.47;;;;;;;16.10;100.00;103183.81;1941189;74;33102;-74
2021/10/08 09:59:40;;;;;;;51.47;47.07;;;;;;;16.28;100.00;103178.37;1940940;74;33064;-74
2021/10/08 10:05:05;;;;;;;48.50;44.50;;;;;;;16.48;100.00;103174.88;1977646;72;32956;-74
2021/10/08 10:10:33;;;;;;;49.00;45.10;;;;;;;16.44;100.00;103179.33;1941026;74;32982;-74
2021/10/08 10:15:59;;;;;;;50.30;46.40;;;;;;;16.34;100.00;103185.73;1941159;74;31527;-75
2021/10/08 10:21:31;;;;;;;47.53;43.93;;;;;;;16.56;100.00;103176.63;1940974;74;33111;-74
2021/10/08 10:27:18;;;;;;;49.97;46.07;;;;;;;16.39;100.00;103179.58;2009980;71;32917;-75
2021/10/08 10:32:50;;;;;;;54.03;49.53;;;;;;;16.56;100.00;103192.06;1941051;74;31108;-74
2021/10/08 10:38:37;;;;;;;53.67;48.80;;;;;;;16.64;100.00;103180.39;1941022;74;32994;-74
2021/10/08 10:44:25;;;;;;;76.90;54.00;;;;;;;16.71;100.00;103190.82;1941058;74;31046;-73
2021/10/08 10:49:52;;;;;;;51.23;46.73;;;;;;;16.68;100.00;103182.95;1941197;74;33539;-74
2021/10/08 10:55:33;;;;;;;53.53;48.97;;;;;;;16.62;100.00;103185.97;1941191;74;31499;-74
2021/10/08 11:01:05;;;;;;;56.37;51.93;;;;;;;16.61;100.00;103186.52;1940967;74;31030;-74
2021/10/08 11:06:30;;;;;;;99.60;60.13;;;;;;;16.80;100.00;103187.80;1941129;74;31146;-74
2021/10/08 11:12:34;;;;;;;49.70;45.70;;;;;;;17.09;100.00;103188.80;1941037;74;31166;-74
2021/10/08 11:18:48;;;;;;;54.80;50.43;;;;;;;16.89;100.00;103187.29;1941022;74;31615;-73
2021/10/08 11:24:42;;;;;;;51.00;46.80;;;;;;;16.80;100.00;103181.34;1941074;74;33464;-75
2021/10/08 11:30:10;;;;;;;54.73;50.73;;;;;;;16.69;100.00;103172.54;1941219;74;33551;-75
2021/10/08 11:35:39;;;;;;;51.83;47.73;;;;;;;16.79;100.00;103174.88;1941129;74;31053;-75
2021/10/08 11:41:14;;;;;;;50.30;46.47;;;;;;;16.81;100.00;103169.81;1941024;74;31168;-74
2021/10/08 11:46:52;;;;;;;50.73;47.03;;;;;;;16.98;100.00;103163.20;1941275;74;33470;-75
2021/10/08 11:52:16;;;;;;;47.70;43.97;;;;;;;17.33;100.00;103156.92;1941233;74;31033;-74
2021/10/08 11:57:57;;;;;;;49.43;45.53;;;;;;;17.20;100.00;103157.68;1941241;74;31106;-73
2021/10/08 12:03:25;;;;;;;47.63;44.03;;;;;;;17.33;100.00;103162.53;1941157;74;31138;-74
2021/10/08 12:08:52;;;;;;;47.50;43.80;;;;;;;17.37;100.00;103151.84;1941144;74;31558;-74
2021/10/08 12:14:22;;;;;;;49.87;46.00;;;;;;;17.27;100.00;103144.25;1941107;74;31043;-77
2021/10/08 12:19:49;;;;;;;48.10;44.40;;;;;;;17.34;100.00;103145.37;1941051;74;31560;-75
2021/10/08 12:25:24;;;;;;;46.60;43.03;;;;;;;17.34;100.00;103141.72;1941308;74;31547;-75
2021/10/08 12:30:56;;;;;;;46.80;43.10;;;;;;;17.43;100.00;103135.30;1941277;74;33537;-75
2021/10/08 12:36:28;;;;;;;48.17;44.07;;;;;;;17.57;100.00;103129.45;1941073;74;31109;-74
2021/10/08 12:41:56;;;;;;;52.17;47.10;;;;;;;17.59;100.00;103122.16;1941214;74;31110;-74
2021/10/08 12:47:26;;;;;;;50.67;46.67;;;;;;;17.56;100.00;103127.75;1941054;74;31107;-74
2021/10/08 12:52:53;;;;;;;50.30;46.17;;;;;;;17.55;100.00;103113.41;1941133;74;31529;-74
2021/10/08 12:58:21;;;;;;;48.83;45.00;;;;;;;17.99;100.00;103101.70;1940995;74;31049;-74
2021/10/08 13:03:50;;;;;;;55.40;50.73;;;;;;;18.08;100.00;103100.87;1941325;74;33450;-74
2021/10/08 13:09:23;;;;;;;74.70;52.63;;;;;;;17.91;100.00;103094.67;1941011;74;31053;-77
2021/10/08 13:14:49;;;;;;;50.10;46.50;;;;;;;17.96;100.00;103091.02;1941181;74;31695;-73
2021/10/08 13:20:14;;;;;;;48.27;44.50;;;;;;;18.04;100.00;103092.72;1941107;74;33476;-75
2021/10/08 13:25:43;;;;;;;50.37;46.37;;;;;;;17.83;100.00;103089.61;1941198;74;31050;-74
2021/10/08 13:31:08;;;;;;;53.07;48.90;;;;;;;18.01;100.00;103081.19;1941154;74;31531;-73
2021/10/08 13:36:39;;;;;;;50.87;47.07;;;;;;;17.97;100.00;103078.06;1941011;74;31039;-74
2021/10/08 13:42:04;;;;;;;49.70;45.70;;;;;;;18.03;100.00;103070.48;1941135;74;31068;-76
2021/10/08 13:47:32;;;;;;;51.20;47.27;;;;;;;18.02;100.00;103065.41;1941175;74;31520;-75
2021/10/08 13:52:56;;;;;;;50.37;46.57;;;;;;;18.13;100.00;103064.86;1941024;74;31132;-73
2021/10/08 13:58:27;;;;;;;48.03;44.43;;;;;;;17.99;100.00;103070.77;1941121;74;31640;-74
2021/10/08 14:03:58;;;;;;;48.63;45.03;;;;;;;17.98;100.00;103060.08;1941103;74;31049;-74
2021/10/08 14:15:04;;;;;;;51.37;47.50;;;;;;;17.88;100.00;103053.63;1941147;74;31087;-74
2021/10/08 14:20:32;;;;;;;49.97;45.87;;;;;;;17.87;100.00;103050.52;1941129;74;33194;-74
2021/10/08 14:25:56;;;;;;;48.50;44.93;;;;;;;17.97;100.00;103041.50;1941074;74;31040;-75
2021/10/08 14:31:23;;;;;;;49.33;45.63;;;;;;;18.10;100.00;103035.31;1941000;74;31112;-76
2021/10/08 14:36:48;;;;;;;48.40;44.90;;;;;;;18.12;100.00;103027.45;1941198;74;31189;-76
2021/10/08 14:42:12;;;;;;;48.83;45.40;;;;;;;18.20;100.00;103030.24;1941044;74;31143;-79
2021/10/08 14:47:38;;;;;;;45.57;42.30;;;;;;;18.14;100.00;103025.77;1941211;74;31591;-76
2021/10/08 14:53:05;;;;;;;46.47;43.13;;;;;;;18.18;100.00;103021.26;1941006;74;31216;-78
2021/10/08 14:58:30;;;;;;;47.07;44.07;;;;;;;18.04;100.00;103022.95;1941059;74;31275;-79
2021/10/08 15:03:54;;;;;;;47.60;44.30;;;;;;;18.11;100.00;103019.28;1941183;74;33462;-78
2021/10/08 15:09:19;;;;;;;46.67;43.47;;;;;;;17.98;100.00;103009.45;1940987;74;31135;-78
2021/10/08 15:14:44;;;;;;;43.73;40.83;;;;;;;17.92;100.00;103014.82;1941019;74;31163;-80
2021/10/08 15:20:12;;;;;;;45.50;42.60;;;;;;;17.99;100.00;103003.27;1941207;74;31096;-76
2021/10/08 15:25:36;;;;;;;44.87;41.67;;;;;;;17.99;100.00;102997.64;1941036;74;31062;-78
2021/10/08 15:31:02;;;;;;;45.37;42.07;;;;;;;17.96;100.00;102994.00;1940985;74;31636;-77
2021/10/08 15:36:26;;;;;;;44.73;41.63;;;;;;;17.93;100.00;102991.73;1941189;74;31619;-76
2021/10/08 15:41:52;;;;;;;45.23;42.13;;;;;;;17.98;100.00;102984.70;1941083;74;31602;-77
2021/10/08 15:47:17;;;;;;;45.90;42.80;;;;;;;17.97;100.00;102985.85;1941127;74;31601;-76
2021/10/08 15:52:43;;;;;;;45.57;42.33;;;;;;;17.99;100.00;102982.17;1941137;74;31150;-76
2021/10/08 15:58:07;;;;;;;46.33;42.97;;;;;;;18.09;100.00;102977.95;1941142;74;31105;-76
2021/10/08 16:03:55;;;;;;;46.83;43.30;;;;;;;17.97;100.00;102978.23;2010073;71;30896;-77
2021/10/08 16:09:19;;;;;;;51.40;47.60;;;;;;;17.93;100.00;102975.70;1941283;74;31544;-76
2021/10/08 16:14:43;;;;;;;48.17;44.77;;;;;;;18.01;100.00;102975.13;1941238;74;31553;-76
2021/10/08 16:20:11;;;;;;;46.80;43.27;;;;;;;17.94;100.00;102983.58;1941159;74;31038;-76
2021/10/08 16:25:35;;;;;;;48.77;45.30;;;;;;;17.91;100.00;102981.34;1941003;74;31573;-76
2021/10/08 16:31:00;;;;;;;47.37;43.77;;;;;;;17.89;100.00;102985.84;1941221;74;33519;-76
2021/10/08 16:36:30;;;;;;;49.37;45.83;;;;;;;17.68;100.00;102990.62;1941281;74;31047;-76
2021/10/08 16:41:58;;;;;;;48.67;44.87;;;;;;;17.64;100.00;102990.06;1941189;74;31152;-76
2021/10/08 16:47:22;;;;;;;47.20;43.43;;;;;;;17.62;100.00;102994.58;1941142;74;33475;-76
2021/10/08 16:52:50;;;;;;;46.47;42.97;;;;;;;17.77;100.00;103005.52;1940991;74;31634;-76
2021/10/08 16:58:20;;;;;;;46.40;43.10;;;;;;;17.53;100.00;103009.44;1941170;74;31165;-76
2021/10/08 17:03:45;;;;;;;48.00;44.47;;;;;;;17.59;100.00;103006.92;1940904;74;31591;-72
2021/10/08 17:09:15;;;;;;;46.63;43.07;;;;;;;17.43;100.00;103004.64;1940861;74;31045;-72
2021/10/08 17:14:40;;;;;;;47.27;43.67;;;;;;;17.38;100.00;103010.25;1941517;74;31598;-76
2021/10/08 17:20:06;;;;;;;48.03;44.43;;;;;;;17.35;100.00;103019.80;1940922;74;31053;-71
2021/10/08 17:25:34;;;;;;;47.90;44.30;;;;;;;17.26;100.00;103022.31;1940869;74;31046;-75
2021/10/08 17:37:01;;;;;;;47.37;43.97;;;;;;;17.36;100.00;103028.52;2010078;71;30954;-76
2021/10/08 17:42:26;;;;;;;47.63;44.00;;;;;;;17.38;100.00;103027.66;1940834;74;31049;-75
2021/10/08 17:47:52;;;;;;;45.83;42.33;;;;;;;17.25;100.00;103029.89;1940988;74;31035;-75
2021/10/08 17:53:16;;;;;;;45.60;42.20;;;;;;;17.24;100.00;103039.43;1940929;74;33630;-72
2021/10/08 17:58:41;;;;;;;43.30;39.83;;;;;;;17.25;100.00;103028.48;1941023;74;31553;-71
2021/10/08 18:04:09;;;;;;;47.13;43.23;;;;;;;17.03;100.00;103032.06;1940809;74;31049;-75
2021/10/08 18:09:35;;;;;;;46.37;42.47;;;;;;;16.99;100.00;103042.16;1940846;74;31101;-71
2021/10/08 18:14:59;;;;;;;48.17;44.37;;;;;;;17.00;100.00;103045.81;1941300;74;31161;-76
2021/10/08 18:20:24;;;;;;;44.40;40.80;;;;;;;17.02;100.00;103051.46;1940767;74;31119;-75
2021/10/08 18:25:49;;;;;;;47.20;43.13;;;;;;;17.03;100.00;103048.91;1940851;74;31035;-71
2021/10/08 18:31:13;;;;;;;45.70;42.30;;;;;;;17.07;100.00;103047.24;1941013;74;31044;-75
2021/10/08 18:36:37;;;;;;;48.77;45.03;;;;;;;16.99;100.00;103051.14;1940823;74;31037;-75
2021/10/08 18:42:21;;;;;;;48.23;44.30;;;;;;;17.09;100.00;103049.23;2000788;71;30830;-75
2021/10/08 18:47:48;;;;;;;46.17;42.53;;;;;;;17.04;100.00;103043.59;1941547;74;31677;-76
2021/10/08 18:53:14;;;;;;;48.77;44.97;;;;;;;17.00;100.00;103047.22;1941307;74;31069;-76
2021/10/08 18:58:38;;;;;;;46.27;42.57;;;;;;;17.07;100.00;103043.62;1941346;74;31082;-75
2021/10/08 19:04:03;;;;;;;46.40;42.87;;;;;;;17.01;100.00;103054.53;1941343;74;31122;-75
2021/10/08 19:09:31;;;;;;;48.23;44.13;;;;;;;16.92;100.00;103051.97;1941571;74;31055;-75
2021/10/08 19:14:58;;;;;;;48.00;43.97;;;;;;;16.96;100.00;103054.51;1941515;74;31598;-75
2021/10/08 19:20:23;;;;;;;47.53;43.90;;;;;;;16.91;100.00;103058.14;1941609;74;33525;-75
2021/10/08 19:25:49;;;;;;;49.17;45.33;;;;;;;16.95;100.00;103055.62;1941310;74;31198;-75
2021/10/08 19:31:15;;;;;;;49.43;45.53;;;;;;;16.96;100.00;103066.59;1941103;74;31558;-75
2021/10/08 19:36:39;;;;;;;50.20;46.30;;;;;;;16.93;100.00;103060.13;1941044;74;31527;-75
2021/10/08 19:42:04;;;;;;;49.53;45.70;;;;;;;16.87;100.00;103057.00;1940810;74;31056;-71
2021/10/08 19:47:48;;;;;;;52.13;48.13;;;;;;;16.90;100.00;103062.64;1998832;71;28537;-75
2021/10/08 19:53:13;;;;;;;49.57;45.93;;;;;;;16.86;100.00;103067.94;1941348;74;31038;-75
2021/10/08 19:58:37;;;;;;;45.53;42.03;;;;;;;16.79;100.00;103060.34;1941015;74;31126;-71
2021/10/08 20:04:04;;;;;;;48.50;44.93;;;;;;;16.74;100.00;103058.34;1941321;74;31044;-75
2021/10/08 20:15:11;;;;;;;46.53;43.13;;;;;;;16.66;100.00;103065.03;1940787;74;31043;-75
2021/10/08 20:20:36;;;;;;;49.27;45.50;;;;;;;16.61;100.00;103058.84;1940768;74;31132;-75
2021/10/08 20:26:20;;;;;;;48.63;45.03;;;;;;;16.56;100.00;103069.17;2002335;71;30835;-75
2021/10/08 20:31:44;;;;;;;47.83;44.10;;;;;;;16.51;100.00;103065.78;1940812;74;31098;-75
2021/10/08 20:37:09;;;;;;;49.83;46.03;;;;;;;16.51;100.00;103062.12;1940762;74;31123;-72
2021/10/08 20:42:34;;;;;;;56.90;52.70;;;;;;;16.51;100.00;103065.78;1940811;74;31041;-75
2021/10/08 20:47:59;;;;;;;54.67;50.70;;;;;;;16.41;100.00;103065.70;1940841;74;31068;-74
2021/10/08 20:53:23;;;;;;;59.43;55.27;;;;;;;16.53;100.00;103071.95;1941059;74;31549;-74
2021/10/08 20:58:48;;;;;;;59.43;54.97;;;;;;;16.49;100.00;103060.13;1940822;74;31012;-74
2021/10/08 21:04:12;;;;;;;50.87;46.90;;;;;;;16.43;100.00;103061.23;1940847;74;31161;-71
2021/10/08 21:09:36;;;;;;;58.67;54.40;;;;;;;16.29;100.00;103059.46;1940802;74;31130;-71
2021/10/08 21:15:01;;;;;;;55.20;51.53;;;;;;;16.30;100.00;103054.96;1940875;74;31092;-71
2021/10/08 21:20:25;;;;;;;55.87;52.00;;;;;;;16.19;100.00;103049.56;1940832;74;31088;-73
2021/10/08 21:25:49;;;;;;;55.70;51.77;;;;;;;16.06;100.00;103050.87;1940828;74;31032;-71
2021/10/08 21:31:13;;;;;;;54.50;51.00;;;;;;;15.96;100.00;103059.19;1940810;74;31021;-71
2021/10/08 21:36:49;;;;;;;52.47;48.97;;;;;;;15.88;100.00;103052.67;1940839;74;31095;-71
2021/10/08 21:47:46;;;;;;;53.43;49.83;;;;;;;15.69;100.00;103038.79;1940970;74;33532;-74
2021/10/08 21:53:11;;;;;;;51.03;48.10;;;;;;;15.54;100.00;103038.08;1940741;74;33045;-71
2021/10/08 21:58:37;;;;;;;52.03;48.90;;;;;;;15.39;100.00;103032.31;1940843;74;31094;-72
2021/10/08 22:04:20;;;;;;;55.83;52.53;;;;;;;15.09;100.00;103026.37;1941043;74;31499;-72
2021/10/08 22:09:45;;;;;;;54.27;50.87;;;;;;;14.91;100.00;103024.77;1940962;74;33546;-70
2021/10/08 22:15:10;;;;;;;50.27;47.07;;;;;;;14.77;100.00;103028.51;1940871;74;32973;-71
2021/10/08 22:20:35;;;;;;;56.43;53.03;;;;;;;14.56;100.00;103027.95;1940741;74;33048;-71
2021/10/08 22:26:10;;;;;;;57.03;53.33;;;;;;;14.36;100.00;103027.13;1940885;74;33545;-74
2021/10/08 22:37:13;;;;;;;53.03;49.43;;;;;;;14.32;100.00;103022.27;1940945;74;33537;-71
2021/10/08 22:42:37;;;;;;;56.60;52.77;;;;;;;14.30;100.00;103020.27;1940994;74;33574;-73
2021/10/08 22:48:02;;;;;;;55.37;51.63;;;;;;;14.29;100.00;103011.03;1940976;74;33546;-74
2021/10/08 22:53:27;;;;;;;56.93;52.67;;;;;;;13.97;100.00;103012.25;1940981;74;32952;-71
2021/10/08 22:58:51;;;;;;;57.60;53.53;;;;;;;13.63;100.00;103014.75;1940916;74;33520;-70
2021/10/08 23:04:18;;;;;;;57.93;53.73;;;;;;;13.46;100.00;103011.94;1940998;74;33040;-71
2021/10/08 23:10:06;;;;;;;61.13;56.50;;;;;;;13.32;100.00;103010.56;1940837;74;33072;-74
2021/10/08 23:15:36;;;;;;;60.83;56.37;;;;;;;13.15;100.00;103005.49;1940839;74;33443;-71
2021/10/08 23:20:59;;;;;;;58.10;53.43;;;;;;;13.11;100.00;103004.30;1940768;74;33051;-74
2021/10/08 23:26:23;;;;;;;58.87;54.67;;;;;;;13.04;100.00;103006.37;1941067;74;33034;-71
2021/10/08 23:31:49;;;;;;;60.13;55.63;;;;;;;12.86;100.00;103003.77;1941034;74;33539;-71
2021/10/08 23:37:13;;;;;;;61.10;56.27;;;;;;;12.75;100.00;103013.31;1940945;74;32957;-74
2021/10/08 23:42:37;;;;;;;63.33;58.23;;;;;;;12.77;100.00;103005.56;1940830;74;33041;-71
2021/10/08 23:48:03;;;;;;;62.37;57.23;;;;;;;12.67;100.00;103008.12;1940866;74;32944;-70
2021/10/08 23:53:28;;;;;;;61.37;56.67;;;;;;;12.81;100.00;103008.69;1940926;74;33040;-70
2021/10/08 23:58:52;;;;;;;64.70;59.67;;;;;;;12.70;100.00;103000.69;1941052;74;33059;-74
